Valdosta Regional Airport
KVLD : rendu visible

Aérodrome :











RETROUVEZ-NOUS SUR...

 
LOGIN :

S'inscrire | Disclaimer

   EN    FR    IT 

 









Légende :    VFR   VFR Marginal   IFR   IFR Intensif   IFR Très Intensif
Visi : 
Plafond : 
>= 8 km
>= 3000ft
5 à 8 km
1000 à 3000 ft
1500m à 5 km
500 à 1000 ft
800 à 1500m
200 à 500 ft
< 800m
< 200 ft
Symboles :   Orages  Brouillard  Fortes neiges  Fortes précipitations  Vent > 20 kt






- Altitude de l'aérodrome : 203 ft
- Code IATA : VLD


KVLD - Valdosta Regional

DERNIER METAR :
  • 241053Z AUTO 00000KT 10SM CLR 10/08 A3007 RMK AO2 SLP192 T01000078 $

METARs EXPIRÉS :
  • 240953Z AUTO 00000KT 10SM FEW095 10/08 A3007 RMK AO2 SLP192 T01000078 $
  • 240853Z AUTO 16003KT 10SM SCT100 11/08 A3008 RMK AO2 SLP195 T01060078 58018 $
  • 240753Z AUTO 00000KT 10SM OVC100 11/08 A3011 RMK AO2 SLP204 T01060078 $

TAF KVLD
Valide du 24 à 06h jusqu'au 25 à 06h UTC


240523Z 2406/2506 00000KT P6SM BKN120
FM241800 18010KT P6SM BKN050
FM250100 17008KT 5SM -SHRA BKN025



MET'MAP, la Météo Aéronautique d'un coup d'oeil ! - Copyright ORBIFLY Décembre 2007 - Disclaimer

ORBIFLY MET'MAP TEAM :

Programmation & Développement : Alexandra Zaïnal
Sur une idée originale de : Baudouin d'Aumeries
Assistance à la programmation : Marc-Olivier Méhu
Soutien technique & logistique : Manuel Goepfert

Contact : metmap@orbifly.com




SOURCES & CREDITS :

   NOAA       Earth
Advisory